sensor_id;sensor_type;location;lat;lon;timestamp;P1;durP1;ratioP1;P2;durP2;ratioP2
73437;SDS011;62744;56.802;23.964;2022-10-16T00:01:25;26.58;;;13.77;;
73437;SDS011;62744;56.802;23.964;2022-10-16T00:03:55;24.13;;;13.35;;
73437;SDS011;62744;56.802;23.964;2022-10-16T00:06:24;26.48;;;14.80;;
73437;SDS011;62744;56.802;23.964;2022-10-16T00:08:52;27.65;;;14.18;;
73437;SDS011;62744;56.802;23.964;2022-10-16T00:11:25;23.88;;;13.32;;
73437;SDS011;62744;56.802;23.964;2022-10-16T00:13:58;24.50;;;13.63;;
73437;SDS011;62744;56.802;23.964;2022-10-16T00:16:27;26.35;;;14.18;;
73437;SDS011;62744;56.802;23.964;2022-10-16T00:18:55;25.58;;;14.85;;
73437;SDS011;62744;56.802;23.964;2022-10-16T00:21:24;25.20;;;14.25;;
73437;SDS011;62744;56.802;23.964;2022-10-16T00:23:54;24.25;;;14.35;;
73437;SDS011;62744;56.802;23.964;2022-10-16T00:26:28;25.00;;;14.52;;
73437;SDS011;62744;56.802;23.964;2022-10-16T00:28:57;24.02;;;13.45;;
73437;SDS011;62744;56.802;23.964;2022-10-16T00:31:24;23.90;;;14.55;;
73437;SDS011;62744;56.802;23.964;2022-10-16T00:33:52;23.80;;;14.32;;
73437;SDS011;62744;56.802;23.964;2022-10-16T00:36:22;24.40;;;14.25;;
73437;SDS011;62744;56.802;23.964;2022-10-16T00:38:55;24.15;;;14.15;;
73437;SDS011;62744;56.802;23.964;2022-10-16T00:41:24;29.10;;;15.30;;
73437;SDS011;62744;56.802;23.964;2022-10-16T00:43:53;23.60;;;14.80;;
73437;SDS011;62744;56.802;23.964;2022-10-16T00:46:39;27.77;;;14.93;;
73437;SDS011;62744;56.802;23.964;2022-10-16T00:49:12;22.65;;;13.02;;
73437;SDS011;62744;56.802;23.964;2022-10-16T00:54:14;25.17;;;14.25;;
73437;SDS011;62744;56.802;23.964;2022-10-16T00:56:50;25.88;;;14.50;;
73437;SDS011;62744;56.802;23.964;2022-10-16T00:59:21;26.70;;;15.20;;
73437;SDS011;62744;56.802;23.964;2022-10-16T01:01:55;23.98;;;14.18;;
73437;SDS011;62744;56.802;23.964;2022-10-16T01:04:24;29.00;;;14.07;;
73437;SDS011;62744;56.802;23.964;2022-10-16T01:07:08;24.48;;;15.50;;
73437;SDS011;62744;56.802;23.964;2022-10-16T01:15:09;27.58;;;15.38;;
73437;SDS011;62744;56.802;23.964;2022-10-16T01:17:43;25.85;;;14.90;;
73437;SDS011;62744;56.802;23.964;2022-10-16T01:29:09;28.25;;;15.98;;
73437;SDS011;62744;56.802;23.964;2022-10-16T01:31:44;30.55;;;17.17;;
73437;SDS011;62744;56.802;23.964;2022-10-16T01:34:25;28.75;;;16.38;;
73437;SDS011;62744;56.802;23.964;2022-10-16T01:37:04;24.60;;;13.90;;
73437;SDS011;62744;56.802;23.964;2022-10-16T01:39:36;30.25;;;16.85;;
73437;SDS011;62744;56.802;23.964;2022-10-16T01:42:12;28.98;;;16.17;;
73437;SDS011;62744;56.802;23.964;2022-10-16T01:44:55;27.98;;;16.15;;
73437;SDS011;62744;56.802;23.964;2022-10-16T01:47:24;28.83;;;17.20;;
73437;SDS011;62744;56.802;23.964;2022-10-16T01:49:53;28.23;;;17.27;;
73437;SDS011;62744;56.802;23.964;2022-10-16T01:52:25;30.25;;;16.85;;
73437;SDS011;62744;56.802;23.964;2022-10-16T01:54:55;28.88;;;16.20;;
73437;SDS011;62744;56.802;23.964;2022-10-16T01:57:24;27.98;;;16.40;;
73437;SDS011;62744;56.802;23.964;2022-10-16T01:59:54;28.45;;;16.23;;
73437;SDS011;62744;56.802;23.964;2022-10-16T02:02:26;29.08;;;17.27;;
73437;SDS011;62744;56.802;23.964;2022-10-16T02:04:58;31.80;;;17.25;;
73437;SDS011;62744;56.802;23.964;2022-10-16T02:07:31;28.58;;;16.08;;
73437;SDS011;62744;56.802;23.964;2022-10-16T02:10:00;28.40;;;16.88;;
73437;SDS011;62744;56.802;23.964;2022-10-16T02:12:29;33.72;;;19.05;;
73437;SDS011;62744;56.802;23.964;2022-10-16T02:15:00;31.90;;;18.38;;
73437;SDS011;62744;56.802;23.964;2022-10-16T02:17:27;31.75;;;17.40;;
73437;SDS011;62744;56.802;23.964;2022-10-16T02:19:55;32.20;;;17.85;;
73437;SDS011;62744;56.802;23.964;2022-10-16T02:22:28;29.90;;;17.05;;
73437;SDS011;62744;56.802;23.964;2022-10-16T02:25:03;34.15;;;17.40;;
73437;SDS011;62744;56.802;23.964;2022-10-16T02:28:03;29.38;;;16.73;;
73437;SDS011;62744;56.802;23.964;2022-10-16T02:30:39;31.88;;;17.17;;
73437;SDS011;62744;56.802;23.964;2022-10-16T02:33:11;29.55;;;16.90;;
73437;SDS011;62744;56.802;23.964;2022-10-16T02:35:41;33.63;;;18.08;;
73437;SDS011;62744;56.802;23.964;2022-10-16T02:38:11;33.58;;;17.67;;
73437;SDS011;62744;56.802;23.964;2022-10-16T02:40:40;30.40;;;17.30;;
73437;SDS011;62744;56.802;23.964;2022-10-16T02:43:09;32.53;;;17.50;;
73437;SDS011;62744;56.802;23.964;2022-10-16T02:45:37;34.28;;;17.25;;
73437;SDS011;62744;56.802;23.964;2022-10-16T02:48:05;32.55;;;18.02;;
73437;SDS011;62744;56.802;23.964;2022-10-16T02:50:32;30.60;;;17.42;;
73437;SDS011;62744;56.802;23.964;2022-10-16T02:53:00;31.17;;;18.55;;
73437;SDS011;62744;56.802;23.964;2022-10-16T02:55:28;34.88;;;18.60;;
73437;SDS011;62744;56.802;23.964;2022-10-16T02:57:55;31.25;;;17.60;;
73437;SDS011;62744;56.802;23.964;2022-10-16T03:00:23;31.85;;;17.15;;
73437;SDS011;62744;56.802;23.964;2022-10-16T03:02:50;34.05;;;18.90;;
73437;SDS011;62744;56.802;23.964;2022-10-16T03:05:18;31.83;;;18.35;;
73437;SDS011;62744;56.802;23.964;2022-10-16T03:07:45;31.15;;;17.55;;
73437;SDS011;62744;56.802;23.964;2022-10-16T03:10:13;32.70;;;17.25;;
73437;SDS011;62744;56.802;23.964;2022-10-16T03:12:40;29.55;;;17.77;;
73437;SDS011;62744;56.802;23.964;2022-10-16T03:15:09;34.20;;;19.35;;
73437;SDS011;62744;56.802;23.964;2022-10-16T03:17:37;33.72;;;18.85;;
73437;SDS011;62744;56.802;23.964;2022-10-16T03:20:04;29.85;;;18.13;;
73437;SDS011;62744;56.802;23.964;2022-10-16T03:22:32;34.20;;;18.40;;
73437;SDS011;62744;56.802;23.964;2022-10-16T03:24:59;30.98;;;18.45;;
73437;SDS011;62744;56.802;23.964;2022-10-16T03:27:27;29.45;;;17.20;;
73437;SDS011;62744;56.802;23.964;2022-10-16T03:29:55;34.88;;;19.45;;
73437;SDS011;62744;56.802;23.964;2022-10-16T03:32:22;31.25;;;17.77;;
73437;SDS011;62744;56.802;23.964;2022-10-16T03:34:51;31.77;;;18.20;;
73437;SDS011;62744;56.802;23.964;2022-10-16T03:37:20;31.08;;;17.60;;
73437;SDS011;62744;56.802;23.964;2022-10-16T03:39:48;29.45;;;17.35;;
73437;SDS011;62744;56.802;23.964;2022-10-16T03:42:15;29.40;;;16.23;;
73437;SDS011;62744;56.802;23.964;2022-10-16T03:44:43;30.73;;;17.65;;
73437;SDS011;62744;56.802;23.964;2022-10-16T03:47:10;26.83;;;16.45;;
73437;SDS011;62744;56.802;23.964;2022-10-16T03:49:37;28.75;;;17.48;;
73437;SDS011;62744;56.802;23.964;2022-10-16T03:52:05;27.02;;;15.55;;
73437;SDS011;62744;56.802;23.964;2022-10-16T03:54:32;26.40;;;16.73;;
73437;SDS011;62744;56.802;23.964;2022-10-16T03:57:00;26.80;;;16.38;;
73437;SDS011;62744;56.802;23.964;2022-10-16T03:59:27;28.70;;;16.92;;
73437;SDS011;62744;56.802;23.964;2022-10-16T04:01:54;27.08;;;15.73;;
73437;SDS011;62744;56.802;23.964;2022-10-16T04:04:22;25.98;;;16.27;;
73437;SDS011;62744;56.802;23.964;2022-10-16T04:06:49;30.05;;;16.17;;
73437;SDS011;62744;56.802;23.964;2022-10-16T04:09:17;26.55;;;16.30;;
73437;SDS011;62744;56.802;23.964;2022-10-16T04:11:44;28.05;;;16.45;;
73437;SDS011;62744;56.802;23.964;2022-10-16T04:14:11;28.75;;;17.10;;
73437;SDS011;62744;56.802;23.964;2022-10-16T04:16:39;27.42;;;16.35;;
73437;SDS011;62744;56.802;23.964;2022-10-16T04:19:06;26.52;;;16.10;;
73437;SDS011;62744;56.802;23.964;2022-10-16T04:21:33;26.17;;;15.95;;
73437;SDS011;62744;56.802;23.964;2022-10-16T04:24:01;28.95;;;15.88;;
73437;SDS011;62744;56.802;23.964;2022-10-16T04:26:28;32.08;;;17.13;;
73437;SDS011;62744;56.802;23.964;2022-10-16T04:28:56;30.13;;;17.10;;
73437;SDS011;62744;56.802;23.964;2022-10-16T04:31:23;29.67;;;17.02;;
73437;SDS011;62744;56.802;23.964;2022-10-16T04:33:51;30.63;;;18.20;;
73437;SDS011;62744;56.802;23.964;2022-10-16T04:36:18;29.08;;;16.15;;
73437;SDS011;62744;56.802;23.964;2022-10-16T04:38:50;29.52;;;16.75;;
73437;SDS011;62744;56.802;23.964;2022-10-16T04:41:17;30.98;;;18.13;;
73437;SDS011;62744;56.802;23.964;2022-10-16T04:43:45;32.38;;;17.92;;
73437;SDS011;62744;56.802;23.964;2022-10-16T04:46:12;31.67;;;17.52;;
73437;SDS011;62744;56.802;23.964;2022-10-16T04:48:39;31.63;;;17.33;;
73437;SDS011;62744;56.802;23.964;2022-10-16T04:51:06;34.90;;;18.30;;
73437;SDS011;62744;56.802;23.964;2022-10-16T04:53:34;31.73;;;17.63;;
73437;SDS011;62744;56.802;23.964;2022-10-16T04:56:01;36.40;;;19.63;;
73437;SDS011;62744;56.802;23.964;2022-10-16T04:58:29;36.08;;;19.95;;
73437;SDS011;62744;56.802;23.964;2022-10-16T05:00:56;37.78;;;19.33;;
73437;SDS011;62744;56.802;23.964;2022-10-16T05:03:23;38.38;;;20.08;;
73437;SDS011;62744;56.802;23.964;2022-10-16T05:05:51;39.80;;;19.15;;
73437;SDS011;62744;56.802;23.964;2022-10-16T05:08:18;37.70;;;20.67;;
73437;SDS011;62744;56.802;23.964;2022-10-16T05:10:46;43.45;;;21.13;;
73437;SDS011;62744;56.802;23.964;2022-10-16T05:13:13;44.97;;;20.65;;
73437;SDS011;62744;56.802;23.964;2022-10-16T05:15:40;44.22;;;22.02;;
73437;SDS011;62744;56.802;23.964;2022-10-16T05:18:08;44.50;;;22.15;;
73437;SDS011;62744;56.802;23.964;2022-10-16T05:20:36;38.35;;;21.15;;
73437;SDS011;62744;56.802;23.964;2022-10-16T05:23:03;43.85;;;21.88;;
73437;SDS011;62744;56.802;23.964;2022-10-16T05:25:30;46.45;;;21.30;;
73437;SDS011;62744;56.802;23.964;2022-10-16T05:27:58;40.72;;;20.77;;
73437;SDS011;62744;56.802;23.964;2022-10-16T05:30:25;44.60;;;22.30;;
73437;SDS011;62744;56.802;23.964;2022-10-16T05:32:53;46.13;;;22.50;;
73437;SDS011;62744;56.802;23.964;2022-10-16T05:35:20;47.20;;;22.80;;
73437;SDS011;62744;56.802;23.964;2022-10-16T05:37:48;47.78;;;23.08;;
73437;SDS011;62744;56.802;23.964;2022-10-16T05:40:15;50.55;;;24.77;;
73437;SDS011;62744;56.802;23.964;2022-10-16T05:42:43;43.88;;;23.60;;
73437;SDS011;62744;56.802;23.964;2022-10-16T05:45:10;47.08;;;22.65;;
73437;SDS011;62744;56.802;23.964;2022-10-16T05:47:38;47.17;;;22.73;;
73437;SDS011;62744;56.802;23.964;2022-10-16T05:50:06;81.47;;;48.58;;
73437;SDS011;62744;56.802;23.964;2022-10-16T05:52:34;74.97;;;40.92;;
73437;SDS011;62744;56.802;23.964;2022-10-16T05:55:02;44.35;;;22.45;;
73437;SDS011;62744;56.802;23.964;2022-10-16T05:57:29;41.53;;;21.02;;
73437;SDS011;62744;56.802;23.964;2022-10-16T05:59:57;40.20;;;21.55;;
73437;SDS011;62744;56.802;23.964;2022-10-16T06:02:25;43.08;;;22.92;;
73437;SDS011;62744;56.802;23.964;2022-10-16T06:04:52;40.83;;;21.50;;
73437;SDS011;62744;56.802;23.964;2022-10-16T06:07:20;43.72;;;23.02;;
73437;SDS011;62744;56.802;23.964;2022-10-16T06:09:50;41.35;;;22.95;;
73437;SDS011;62744;56.802;23.964;2022-10-16T06:12:18;45.22;;;23.00;;
73437;SDS011;62744;56.802;23.964;2022-10-16T06:14:46;41.70;;;23.10;;
73437;SDS011;62744;56.802;23.964;2022-10-16T06:17:14;41.83;;;21.80;;
73437;SDS011;62744;56.802;23.964;2022-10-16T06:19:41;45.63;;;23.80;;
73437;SDS011;62744;56.802;23.964;2022-10-16T06:22:09;46.25;;;24.75;;
73437;SDS011;62744;56.802;23.964;2022-10-16T06:24:36;40.20;;;22.73;;
73437;SDS011;62744;56.802;23.964;2022-10-16T06:27:04;43.33;;;24.02;;
73437;SDS011;62744;56.802;23.964;2022-10-16T06:29:32;43.60;;;22.70;;
73437;SDS011;62744;56.802;23.964;2022-10-16T06:31:59;51.08;;;27.40;;
73437;SDS011;62744;56.802;23.964;2022-10-16T06:34:26;47.25;;;23.70;;
73437;SDS011;62744;56.802;23.964;2022-10-16T06:36:54;45.47;;;23.45;;
73437;SDS011;62744;56.802;23.964;2022-10-16T06:39:21;45.05;;;23.83;;
73437;SDS011;62744;56.802;23.964;2022-10-16T06:41:49;42.75;;;22.77;;
73437;SDS011;62744;56.802;23.964;2022-10-16T06:44:16;47.05;;;24.20;;
73437;SDS011;62744;56.802;23.964;2022-10-16T06:46:44;45.28;;;24.73;;
73437;SDS011;62744;56.802;23.964;2022-10-16T06:49:12;41.55;;;22.67;;
73437;SDS011;62744;56.802;23.964;2022-10-16T06:51:42;44.90;;;22.75;;
73437;SDS011;62744;56.802;23.964;2022-10-16T06:54:09;45.83;;;22.58;;
73437;SDS011;62744;56.802;23.964;2022-10-16T06:56:37;42.72;;;23.17;;
73437;SDS011;62744;56.802;23.964;2022-10-16T06:59:05;44.47;;;24.13;;
73437;SDS011;62744;56.802;23.964;2022-10-16T07:01:33;44.25;;;23.45;;
73437;SDS011;62744;56.802;23.964;2022-10-16T07:04:02;44.85;;;22.83;;
73437;SDS011;62744;56.802;23.964;2022-10-16T07:06:30;45.38;;;22.42;;
73437;SDS011;62744;56.802;23.964;2022-10-16T07:09:01;47.17;;;24.63;;
73437;SDS011;62744;56.802;23.964;2022-10-16T07:11:33;43.60;;;23.50;;
73437;SDS011;62744;56.802;23.964;2022-10-16T07:14:03;44.33;;;23.80;;
73437;SDS011;62744;56.802;23.964;2022-10-16T07:16:31;45.05;;;22.38;;
73437;SDS011;62744;56.802;23.964;2022-10-16T07:19:00;42.92;;;22.63;;
73437;SDS011;62744;56.802;23.964;2022-10-16T07:21:29;41.97;;;23.77;;
73437;SDS011;62744;56.802;23.964;2022-10-16T07:24:03;45.50;;;22.85;;
73437;SDS011;62744;56.802;23.964;2022-10-16T07:26:34;42.05;;;21.88;;
73437;SDS011;62744;56.802;23.964;2022-10-16T07:29:03;43.38;;;23.80;;
73437;SDS011;62744;56.802;23.964;2022-10-16T07:31:31;60.88;;;38.35;;
73437;SDS011;62744;56.802;23.964;2022-10-16T07:33:59;52.13;;;27.33;;
73437;SDS011;62744;56.802;23.964;2022-10-16T07:36:27;48.67;;;24.42;;
73437;SDS011;62744;56.802;23.964;2022-10-16T07:38:55;44.88;;;23.20;;
73437;SDS011;62744;56.802;23.964;2022-10-16T07:41:25;46.20;;;22.88;;
73437;SDS011;62744;56.802;23.964;2022-10-16T07:43:54;45.45;;;23.33;;
73437;SDS011;62744;56.802;23.964;2022-10-16T07:46:24;46.50;;;23.75;;
73437;SDS011;62744;56.802;23.964;2022-10-16T07:48:51;44.22;;;22.35;;
73437;SDS011;62744;56.802;23.964;2022-10-16T07:51:20;44.17;;;23.50;;
73437;SDS011;62744;56.802;23.964;2022-10-16T07:53:49;44.72;;;24.05;;
73437;SDS011;62744;56.802;23.964;2022-10-16T07:56:18;44.83;;;23.20;;
73437;SDS011;62744;56.802;23.964;2022-10-16T07:58:46;45.58;;;22.85;;
73437;SDS011;62744;56.802;23.964;2022-10-16T08:01:16;44.75;;;23.20;;
73437;SDS011;62744;56.802;23.964;2022-10-16T08:03:45;44.60;;;23.02;;
73437;SDS011;62744;56.802;23.964;2022-10-16T08:06:15;44.50;;;23.33;;
73437;SDS011;62744;56.802;23.964;2022-10-16T08:08:50;45.55;;;23.02;;
73437;SDS011;62744;56.802;23.964;2022-10-16T08:11:18;45.78;;;21.92;;
73437;SDS011;62744;56.802;23.964;2022-10-16T08:13:45;50.08;;;26.27;;
73437;SDS011;62744;56.802;23.964;2022-10-16T08:16:13;44.92;;;22.75;;
73437;SDS011;62744;56.802;23.964;2022-10-16T08:18:40;41.45;;;23.23;;
73437;SDS011;62744;56.802;23.964;2022-10-16T08:21:12;44.60;;;24.48;;
73437;SDS011;62744;56.802;23.964;2022-10-16T08:23:47;44.15;;;24.20;;
73437;SDS011;62744;56.802;23.964;2022-10-16T08:26:23;42.95;;;23.67;;
73437;SDS011;62744;56.802;23.964;2022-10-16T08:28:53;46.47;;;25.15;;
73437;SDS011;62744;56.802;23.964;2022-10-16T08:31:22;45.33;;;23.70;;
73437;SDS011;62744;56.802;23.964;2022-10-16T08:33:50;43.45;;;23.65;;
73437;SDS011;62744;56.802;23.964;2022-10-16T08:36:19;43.65;;;24.40;;
73437;SDS011;62744;56.802;23.964;2022-10-16T08:38:49;49.65;;;28.15;;
73437;SDS011;62744;56.802;23.964;2022-10-16T08:49:34;46.97;;;23.58;;
73437;SDS011;62744;56.802;23.964;2022-10-16T08:52:04;46.30;;;24.58;;
73437;SDS011;62744;56.802;23.964;2022-10-16T08:54:37;48.42;;;25.20;;
73437;SDS011;62744;56.802;23.964;2022-10-16T08:57:15;44.88;;;25.00;;
73437;SDS011;62744;56.802;23.964;2022-10-16T08:59:50;47.30;;;25.23;;
73437;SDS011;62744;56.802;23.964;2022-10-16T09:02:32;48.50;;;25.23;;
73437;SDS011;62744;56.802;23.964;2022-10-16T09:16:39;47.72;;;26.23;;
73437;SDS011;62744;56.802;23.964;2022-10-16T09:19:32;48.17;;;24.00;;
73437;SDS011;62744;56.802;23.964;2022-10-16T09:22:14;50.67;;;26.55;;
73437;SDS011;62744;56.802;23.964;2022-10-16T09:24:43;48.25;;;25.83;;
73437;SDS011;62744;56.802;23.964;2022-10-16T09:27:12;47.63;;;26.17;;
73437;SDS011;62744;56.802;23.964;2022-10-16T09:29:41;47.40;;;25.05;;
73437;SDS011;62744;56.802;23.964;2022-10-16T09:32:14;48.53;;;26.20;;
73437;SDS011;62744;56.802;23.964;2022-10-16T09:34:52;45.05;;;25.08;;
73437;SDS011;62744;56.802;23.964;2022-10-16T09:37:23;47.80;;;26.35;;
73437;SDS011;62744;56.802;23.964;2022-10-16T09:39:53;47.78;;;25.45;;
73437;SDS011;62744;56.802;23.964;2022-10-16T09:42:25;47.95;;;24.60;;
73437;SDS011;62744;56.802;23.964;2022-10-16T09:45:03;55.30;;;27.42;;
73437;SDS011;62744;56.802;23.964;2022-10-16T09:47:43;113.75;;;62.78;;
73437;SDS011;62744;56.802;23.964;2022-10-16T09:50:25;62.47;;;31.23;;
73437;SDS011;62744;56.802;23.964;2022-10-16T09:53:03;52.30;;;28.30;;
73437;SDS011;62744;56.802;23.964;2022-10-16T09:55:32;52.58;;;27.92;;
73437;SDS011;62744;56.802;23.964;2022-10-16T09:58:01;47.55;;;26.38;;
73437;SDS011;62744;56.802;23.964;2022-10-16T10:00:30;56.08;;;26.77;;
73437;SDS011;62744;56.802;23.964;2022-10-16T10:02:59;49.03;;;27.42;;
73437;SDS011;62744;56.802;23.964;2022-10-16T10:05:27;47.63;;;25.45;;
73437;SDS011;62744;56.802;23.964;2022-10-16T10:07:59;48.88;;;25.55;;
73437;SDS011;62744;56.802;23.964;2022-10-16T10:10:33;49.90;;;24.73;;
73437;SDS011;62744;56.802;23.964;2022-10-16T10:13:21;50.10;;;25.67;;
73437;SDS011;62744;56.802;23.964;2022-10-16T10:15:51;44.72;;;25.55;;
73437;SDS011;62744;56.802;23.964;2022-10-16T10:18:21;52.13;;;25.90;;
73437;SDS011;62744;56.802;23.964;2022-10-16T10:21:00;46.13;;;25.15;;
73437;SDS011;62744;56.802;23.964;2022-10-16T10:23:29;42.33;;;24.10;;
73437;SDS011;62744;56.802;23.964;2022-10-16T10:26:10;43.50;;;22.65;;
73437;SDS011;62744;56.802;23.964;2022-10-16T10:28:55;41.05;;;23.33;;
73437;SDS011;62744;56.802;23.964;2022-10-16T10:35:07;43.58;;;23.50;;
73437;SDS011;62744;56.802;23.964;2022-10-16T10:38:05;43.08;;;23.50;;
73437;SDS011;62744;56.802;23.964;2022-10-16T10:43:52;40.40;;;22.60;;
73437;SDS011;62744;56.802;23.964;2022-10-16T10:46:34;37.13;;;20.58;;
73437;SDS011;62744;56.802;23.964;2022-10-16T10:49:16;38.67;;;22.17;;
73437;SDS011;62744;56.802;23.964;2022-10-16T10:57:34;39.45;;;21.23;;
73437;SDS011;62744;56.802;23.964;2022-10-16T11:06:10;36.55;;;20.58;;
73437;SDS011;62744;56.802;23.964;2022-10-16T11:08:55;39.55;;;20.60;;
73437;SDS011;62744;56.802;23.964;2022-10-16T11:14:21;37.45;;;20.17;;
73437;SDS011;62744;56.802;23.964;2022-10-16T11:16:59;38.53;;;21.08;;
73437;SDS011;62744;56.802;23.964;2022-10-16T11:19:45;38.25;;;20.92;;
73437;SDS011;62744;56.802;23.964;2022-10-16T11:25:27;39.58;;;21.27;;
73437;SDS011;62744;56.802;23.964;2022-10-16T11:30:58;35.90;;;20.52;;
73437;SDS011;62744;56.802;23.964;2022-10-16T11:36:51;38.97;;;19.77;;
73437;SDS011;62744;56.802;23.964;2022-10-16T11:39:37;40.80;;;20.05;;
73437;SDS011;62744;56.802;23.964;2022-10-16T11:53:01;33.55;;;18.73;;
73437;SDS011;62744;56.802;23.964;2022-10-16T11:55:31;37.47;;;20.95;;
73437;SDS011;62744;56.802;23.964;2022-10-16T12:01:02;34.35;;;19.25;;
73437;SDS011;62744;56.802;23.964;2022-10-16T12:09:13;32.50;;;19.08;;
73437;SDS011;62744;56.802;23.964;2022-10-16T12:11:45;34.15;;;19.10;;
73437;SDS011;62744;56.802;23.964;2022-10-16T12:16:55;33.67;;;19.13;;
73437;SDS011;62744;56.802;23.964;2022-10-16T12:19:26;33.85;;;19.25;;
73437;SDS011;62744;56.802;23.964;2022-10-16T12:21:58;32.60;;;17.90;;
73437;SDS011;62744;56.802;23.964;2022-10-16T12:26:55;34.55;;;18.90;;
73437;SDS011;62744;56.802;23.964;2022-10-16T12:29:31;35.55;;;19.10;;
73437;SDS011;62744;56.802;23.964;2022-10-16T12:32:05;38.38;;;18.55;;
73437;SDS011;62744;56.802;23.964;2022-10-16T12:35:22;40.97;;;22.45;;
73437;SDS011;62744;56.802;23.964;2022-10-16T12:37:53;37.33;;;21.85;;
73437;SDS011;62744;56.802;23.964;2022-10-16T12:40:32;37.05;;;20.92;;
73437;SDS011;62744;56.802;23.964;2022-10-16T12:44:04;36.05;;;20.67;;
73437;SDS011;62744;56.802;23.964;2022-10-16T12:48:38;37.38;;;20.88;;
73437;SDS011;62744;56.802;23.964;2022-10-16T12:53:58;32.45;;;17.85;;
73437;SDS011;62744;56.802;23.964;2022-10-16T12:59:35;34.88;;;18.98;;
73437;SDS011;62744;56.802;23.964;2022-10-16T13:13:41;32.45;;;18.30;;
73437;SDS011;62744;56.802;23.964;2022-10-16T13:16:35;33.25;;;17.70;;
73437;SDS011;62744;56.802;23.964;2022-10-16T13:22:03;30.38;;;16.80;;
73437;SDS011;62744;56.802;23.964;2022-10-16T13:24:53;31.95;;;18.60;;
73437;SDS011;62744;56.802;23.964;2022-10-16T13:30:24;33.35;;;17.75;;
73437;SDS011;62744;56.802;23.964;2022-10-16T13:35:30;30.60;;;18.17;;
73437;SDS011;62744;56.802;23.964;2022-10-16T13:38:13;32.33;;;17.73;;
73437;SDS011;62744;56.802;23.964;2022-10-16T13:43:37;31.80;;;17.73;;
73437;SDS011;62744;56.802;23.964;2022-10-16T13:46:12;30.60;;;17.83;;
73437;SDS011;62744;56.802;23.964;2022-10-16T13:48:42;35.72;;;21.15;;
73437;SDS011;62744;56.802;23.964;2022-10-16T13:53:42;34.33;;;18.40;;
73437;SDS011;62744;56.802;23.964;2022-10-16T13:56:13;32.22;;;18.90;;
73437;SDS011;62744;56.802;23.964;2022-10-16T13:58:43;35.25;;;18.15;;
73437;SDS011;62744;56.802;23.964;2022-10-16T14:01:19;32.05;;;20.55;;
73437;SDS011;62744;56.802;23.964;2022-10-16T14:04:01;31.33;;;18.70;;
73437;SDS011;62744;56.802;23.964;2022-10-16T14:06:35;33.60;;;21.13;;
73437;SDS011;62744;56.802;23.964;2022-10-16T14:09:08;29.92;;;19.70;;
73437;SDS011;62744;56.802;23.964;2022-10-16T14:11:53;30.42;;;18.02;;
73437;SDS011;62744;56.802;23.964;2022-10-16T14:14:24;30.30;;;17.73;;
73437;SDS011;62744;56.802;23.964;2022-10-16T14:16:58;29.58;;;17.75;;
73437;SDS011;62744;56.802;23.964;2022-10-16T14:19:26;34.45;;;19.48;;
73437;SDS011;62744;56.802;23.964;2022-10-16T14:21:55;33.75;;;20.55;;
73437;SDS011;62744;56.802;23.964;2022-10-16T14:26:57;33.92;;;17.92;;
73437;SDS011;62744;56.802;23.964;2022-10-16T14:29:27;30.42;;;17.50;;
73437;SDS011;62744;56.802;23.964;2022-10-16T14:32:03;41.75;;;26.50;;
73437;SDS011;62744;56.802;23.964;2022-10-16T14:34:34;38.22;;;22.65;;
73437;SDS011;62744;56.802;23.964;2022-10-16T14:39:53;32.20;;;18.63;;
73437;SDS011;62744;56.802;23.964;2022-10-16T14:42:24;30.75;;;18.65;;
73437;SDS011;62744;56.802;23.964;2022-10-16T14:44:53;30.50;;;18.15;;
73437;SDS011;62744;56.802;23.964;2022-10-16T14:47:22;37.13;;;21.50;;
73437;SDS011;62744;56.802;23.964;2022-10-16T14:49:53;69.60;;;42.45;;
73437;SDS011;62744;56.802;23.964;2022-10-16T14:52:26;41.17;;;22.75;;
73437;SDS011;62744;56.802;23.964;2022-10-16T14:54:53;35.03;;;19.83;;
73437;SDS011;62744;56.802;23.964;2022-10-16T14:57:24;38.45;;;21.00;;
73437;SDS011;62744;56.802;23.964;2022-10-16T14:59:58;36.75;;;21.40;;
73437;SDS011;62744;56.802;23.964;2022-10-16T15:02:33;36.70;;;20.92;;
73437;SDS011;62744;56.802;23.964;2022-10-16T15:05:22;34.50;;;20.42;;
73437;SDS011;62744;56.802;23.964;2022-10-16T15:07:54;35.80;;;20.55;;
73437;SDS011;62744;56.802;23.964;2022-10-16T15:10:23;34.63;;;20.80;;
73437;SDS011;62744;56.802;23.964;2022-10-16T15:12:53;40.08;;;21.92;;
73437;SDS011;62744;56.802;23.964;2022-10-16T15:17:59;35.72;;;20.02;;
73437;SDS011;62744;56.802;23.964;2022-10-16T15:20:28;35.58;;;20.67;;
73437;SDS011;62744;56.802;23.964;2022-10-16T15:23:03;37.10;;;23.40;;
73437;SDS011;62744;56.802;23.964;2022-10-16T15:28:13;31.83;;;20.95;;
73437;SDS011;62744;56.802;23.964;2022-10-16T15:30:42;32.38;;;20.25;;
73437;SDS011;62744;56.802;23.964;2022-10-16T15:33:17;31.83;;;18.90;;
73437;SDS011;62744;56.802;23.964;2022-10-16T15:35:52;33.88;;;19.70;;
73437;SDS011;62744;56.802;23.964;2022-10-16T15:38:21;29.77;;;17.85;;
73437;SDS011;62744;56.802;23.964;2022-10-16T15:40:49;35.78;;;19.88;;
73437;SDS011;62744;56.802;23.964;2022-10-16T15:43:17;28.65;;;17.92;;
73437;SDS011;62744;56.802;23.964;2022-10-16T15:46:08;32.53;;;19.35;;
73437;SDS011;62744;56.802;23.964;2022-10-16T15:48:36;32.58;;;18.02;;
73437;SDS011;62744;56.802;23.964;2022-10-16T15:51:07;29.05;;;17.75;;
73437;SDS011;62744;56.802;23.964;2022-10-16T15:53:35;29.88;;;18.23;;
73437;SDS011;62744;56.802;23.964;2022-10-16T15:56:05;29.23;;;17.92;;
73437;SDS011;62744;56.802;23.964;2022-10-16T15:58:34;31.52;;;19.10;;
73437;SDS011;62744;56.802;23.964;2022-10-16T16:01:06;31.10;;;18.70;;
73437;SDS011;62744;56.802;23.964;2022-10-16T16:03:37;34.40;;;20.55;;
73437;SDS011;62744;56.802;23.964;2022-10-16T16:06:10;31.92;;;19.50;;
73437;SDS011;62744;56.802;23.964;2022-10-16T16:08:40;30.95;;;19.50;;
73437;SDS011;62744;56.802;23.964;2022-10-16T16:11:10;31.02;;;19.50;;
73437;SDS011;62744;56.802;23.964;2022-10-16T16:13:40;31.75;;;19.35;;
73437;SDS011;62744;56.802;23.964;2022-10-16T16:16:12;35.17;;;20.52;;
73437;SDS011;62744;56.802;23.964;2022-10-16T16:18:41;31.67;;;19.52;;
73437;SDS011;62744;56.802;23.964;2022-10-16T16:21:10;33.58;;;19.98;;
73437;SDS011;62744;56.802;23.964;2022-10-16T16:23:41;34.63;;;19.80;;
73437;SDS011;62744;56.802;23.964;2022-10-16T16:28:42;36.83;;;20.92;;
73437;SDS011;62744;56.802;23.964;2022-10-16T16:31:13;35.53;;;20.15;;
73437;SDS011;62744;56.802;23.964;2022-10-16T16:33:40;38.00;;;20.33;;
73437;SDS011;62744;56.802;23.964;2022-10-16T16:36:08;35.25;;;20.25;;
73437;SDS011;62744;56.802;23.964;2022-10-16T16:38:41;29.88;;;18.00;;
73437;SDS011;62744;56.802;23.964;2022-10-16T16:41:11;45.40;;;23.02;;
73437;SDS011;62744;56.802;23.964;2022-10-16T16:43:40;48.45;;;24.33;;
73437;SDS011;62744;56.802;23.964;2022-10-16T16:46:10;35.92;;;20.08;;
73437;SDS011;62744;56.802;23.964;2022-10-16T16:48:38;41.55;;;24.42;;
73437;SDS011;62744;56.802;23.964;2022-10-16T16:51:13;39.78;;;21.85;;